createdAt,value
2023-08-14T00:01:27.316Z,0.90
2023-08-14T00:03:54.282Z,1.15
2023-08-14T00:06:21.222Z,0.95
2023-08-14T00:08:48.004Z,0.70
2023-08-14T00:11:14.774Z,0.80
2023-08-14T00:13:54.938Z,0.60
2023-08-14T00:16:21.819Z,0.77
2023-08-14T00:18:48.666Z,0.70
2023-08-14T00:21:15.748Z,1.15
2023-08-14T00:23:42.498Z,1.00
2023-08-14T00:26:10.762Z,1.48
2023-08-14T00:28:37.643Z,1.13
2023-08-14T00:31:04.509Z,1.00
2023-08-14T00:33:31.346Z,1.45
2023-08-14T00:35:58.156Z,0.70
2023-08-14T00:38:24.959Z,0.90
2023-08-14T00:40:53.981Z,1.10
2023-08-14T00:43:23.899Z,0.88
2023-08-14T00:45:52.320Z,0.95
2023-08-14T00:48:19.158Z,1.00
2023-08-14T00:50:45.950Z,0.90
2023-08-14T00:53:12.747Z,0.80
2023-08-14T00:55:39.510Z,0.80
2023-08-14T00:58:06.325Z,0.90
2023-08-14T01:00:33.888Z,0.70
2023-08-14T01:03:01.203Z,1.10
2023-08-14T01:05:27.992Z,0.80
2023-08-14T01:07:54.757Z,0.73
2023-08-14T01:10:21.785Z,0.65
2023-08-14T01:13:19.543Z,0.90
2023-08-14T01:15:47.871Z,0.82
2023-08-14T01:18:16.968Z,0.90
2023-08-14T01:20:43.997Z,1.10
2023-08-14T01:23:26.936Z,1.70
2023-08-14T01:25:53.807Z,0.95
2023-08-14T01:28:20.591Z,1.20
2023-08-14T01:30:47.468Z,0.90
2023-08-14T01:33:14.400Z,0.80
2023-08-14T01:35:44.067Z,1.40
2023-08-14T01:38:34.060Z,2.13
2023-08-14T01:41:24.038Z,1.30
2023-08-14T01:43:51.458Z,0.80
2023-08-14T01:46:18.395Z,0.63
2023-08-14T01:48:48.169Z,0.90
2023-08-14T01:51:15.093Z,0.88
2023-08-14T01:53:42.119Z,0.98
2023-08-14T01:56:08.909Z,1.02
2023-08-14T01:58:38.728Z,0.90
2023-08-14T02:01:05.547Z,0.90
2023-08-14T02:03:38.078Z,0.88
2023-08-14T02:06:05.010Z,0.52
2023-08-14T02:08:31.815Z,0.73
2023-08-14T02:10:58.547Z,0.60
2023-08-14T02:13:25.320Z,0.70
2023-08-14T02:15:52.663Z,0.60
2023-08-14T02:18:19.469Z,0.80
2023-08-14T02:20:47.386Z,0.70
2023-08-14T02:23:14.205Z,0.70
2023-08-14T02:25:43.797Z,0.70
2023-08-14T02:28:10.942Z,0.80
2023-08-14T02:30:38.721Z,0.70
2023-08-14T02:33:06.022Z,0.70
2023-08-14T02:35:32.944Z,0.80
2023-08-14T02:37:59.775Z,1.02
2023-08-14T02:40:26.831Z,1.00
2023-08-14T02:42:54.063Z,0.80
2023-08-14T02:45:20.817Z,0.60
2023-08-14T02:47:48.173Z,0.82
2023-08-14T02:50:15.041Z,1.17
2023-08-14T02:52:41.797Z,0.77
2023-08-14T02:55:08.829Z,0.77
2023-08-14T02:57:35.641Z,0.55
2023-08-14T03:00:02.516Z,0.70
2023-08-14T03:02:29.433Z,0.60
2023-08-14T03:04:56.376Z,0.80
2023-08-14T03:07:23.181Z,0.70
2023-08-14T03:09:49.972Z,0.60
2023-08-14T03:12:17.100Z,0.70
2023-08-14T03:14:44.050Z,1.00
2023-08-14T03:17:10.827Z,0.90
2023-08-14T03:19:37.643Z,8.90
2023-08-14T03:22:04.487Z,0.80
2023-08-14T03:24:31.248Z,1.30
2023-08-14T03:26:58.196Z,0.95
2023-08-14T03:29:25.817Z,1.20
2023-08-14T03:31:52.877Z,1.65
2023-08-14T03:34:19.945Z,1.20
2023-08-14T03:36:46.817Z,0.90
2023-08-14T03:39:13.553Z,1.15
2023-08-14T03:41:40.461Z,0.95
2023-08-14T03:44:07.540Z,1.10
2023-08-14T03:46:34.443Z,1.25
2023-08-14T03:49:01.299Z,1.27
2023-08-14T03:51:28.128Z,0.98
2023-08-14T03:53:54.931Z,1.15
2023-08-14T03:56:21.723Z,1.00
2023-08-14T03:58:48.556Z,1.85
2023-08-14T04:01:15.442Z,1.10
2023-08-14T04:03:42.262Z,1.20
2023-08-14T04:06:09.074Z,1.20
2023-08-14T04:08:35.907Z,1.45
2023-08-14T04:11:02.703Z,1.48
2023-08-14T04:13:29.787Z,1.50
2023-08-14T04:16:00.824Z,1.60
2023-08-14T04:18:28.997Z,1.40
2023-08-14T04:20:55.838Z,1.50
2023-08-14T04:23:23.653Z,1.20
2023-08-14T04:25:50.785Z,1.33
2023-08-14T04:28:17.564Z,1.52
2023-08-14T04:30:44.532Z,1.33
2023-08-14T04:33:11.469Z,1.35
2023-08-14T04:35:43.558Z,1.50
2023-08-14T04:38:11.616Z,1.40
2023-08-14T04:40:38.422Z,1.20
2023-08-14T04:43:05.198Z,1.50
2023-08-14T04:45:31.996Z,1.70
2023-08-14T04:47:58.812Z,1.38
2023-08-14T04:50:26.040Z,1.67
2023-08-14T04:52:52.923Z,1.67
2023-08-14T04:55:19.687Z,1.42
2023-08-14T04:57:46.745Z,1.60
2023-08-14T05:00:14.437Z,1.75
2023-08-14T05:02:41.376Z,1.75
2023-08-14T05:05:08.509Z,2.10
2023-08-14T05:07:35.278Z,1.60
2023-08-14T05:10:02.122Z,2.05
2023-08-14T05:12:28.940Z,2.10
2023-08-14T05:14:55.759Z,2.38
2023-08-14T05:17:22.693Z,2.03
2023-08-14T05:19:49.699Z,2.38
2023-08-14T05:22:17.403Z,2.83
2023-08-14T05:24:44.476Z,2.58
2023-08-14T05:27:11.228Z,2.13
2023-08-14T05:29:38.098Z,1.98
2023-08-14T05:32:06.073Z,1.95
2023-08-14T05:34:32.937Z,3.03
2023-08-14T05:36:59.956Z,2.33
2023-08-14T05:39:28.100Z,3.15
2023-08-14T05:41:55.201Z,2.25
2023-08-14T05:44:22.048Z,2.33
2023-08-14T05:46:49.922Z,2.63
2023-08-14T05:49:19.735Z,2.88
2023-08-14T05:51:46.630Z,2.63
2023-08-14T05:54:13.540Z,3.00
2023-08-14T05:56:40.540Z,2.70
2023-08-14T05:59:07.955Z,3.20
2023-08-14T06:01:35.337Z,2.33
2023-08-14T06:04:02.332Z,2.80
2023-08-14T06:06:29.272Z,2.38
2023-08-14T06:08:58.268Z,2.30
2023-08-14T06:11:26.661Z,2.65
2023-08-14T06:13:53.457Z,2.78
2023-08-14T06:16:20.340Z,2.55
2023-08-14T06:18:47.165Z,2.70
2023-08-14T06:21:14.054Z,3.47
2023-08-14T06:23:40.859Z,2.22
2023-08-14T06:26:07.639Z,2.53
2023-08-14T06:28:34.694Z,2.55
2023-08-14T06:31:03.230Z,2.38
2023-08-14T06:33:30.125Z,3.00
2023-08-14T06:35:57.328Z,3.20
2023-08-14T06:38:24.116Z,2.80
2023-08-14T06:40:51.000Z,3.47
2023-08-14T06:43:17.789Z,2.60
2023-08-14T06:45:46.688Z,3.30
2023-08-14T06:48:14.142Z,2.80
2023-08-14T06:50:41.044Z,3.08
2023-08-14T06:53:07.843Z,3.42
2023-08-14T06:55:34.628Z,3.40
2023-08-14T06:58:01.532Z,3.20
2023-08-14T07:00:28.454Z,3.30
2023-08-14T07:02:55.471Z,3.30
2023-08-14T07:05:22.303Z,3.03
2023-08-14T07:07:49.229Z,3.08
2023-08-14T07:10:18.255Z,2.80
2023-08-14T07:12:47.111Z,2.85
2023-08-14T07:15:13.983Z,2.60
2023-08-14T07:17:40.778Z,2.92
2023-08-14T07:20:11.499Z,3.22
2023-08-14T07:22:38.867Z,2.50
2023-08-14T07:25:07.011Z,3.95
2023-08-14T07:27:33.933Z,2.70
2023-08-14T07:30:00.690Z,2.30
2023-08-14T07:32:27.563Z,2.00
2023-08-14T07:34:54.486Z,2.80
2023-08-14T07:37:24.850Z,2.67
2023-08-14T07:39:55.329Z,2.60
2023-08-14T07:42:22.394Z,2.55
2023-08-14T07:44:49.254Z,2.80
2023-08-14T07:47:15.959Z,2.78
2023-08-14T07:49:42.784Z,2.00
2023-08-14T07:52:11.526Z,1.70
2023-08-14T07:54:38.589Z,1.52
2023-08-14T07:57:05.323Z,1.90
2023-08-14T07:59:32.216Z,2.15
2023-08-14T08:01:59.001Z,1.98
2023-08-14T08:04:27.090Z,1.52
2023-08-14T08:06:57.288Z,1.67
2023-08-14T08:09:24.843Z,1.27
2023-08-14T08:11:51.669Z,1.30
2023-08-14T08:14:18.509Z,1.40
2023-08-14T08:16:46.038Z,1.00
2023-08-14T08:19:12.840Z,1.20
2023-08-14T08:21:39.772Z,1.40
2023-08-14T08:24:07.088Z,1.30
2023-08-14T08:26:33.976Z,1.10
2023-08-14T08:29:00.780Z,1.15
2023-08-14T08:31:28.100Z,1.30
2023-08-14T08:33:55.058Z,2.05
2023-08-14T08:36:22.670Z,1.23
2023-08-14T08:38:49.684Z,1.42
2023-08-14T08:41:50.476Z,1.58
2023-08-14T08:44:22.653Z,1.25
2023-08-14T08:46:52.721Z,1.00
2023-08-14T08:49:23.658Z,0.95
2023-08-14T08:51:50.448Z,1.00
2023-08-14T08:54:17.274Z,0.93
2023-08-14T08:56:44.100Z,1.10
2023-08-14T08:59:12.791Z,1.10
2023-08-14T09:01:44.077Z,1.08
2023-08-14T09:04:11.463Z,1.00
2023-08-14T09:06:38.735Z,1.30
2023-08-14T09:09:05.698Z,0.93
2023-08-14T09:11:32.478Z,1.10
2023-08-14T09:13:59.930Z,1.00
2023-08-14T09:16:28.566Z,1.08
2023-08-14T09:19:01.512Z,1.15
2023-08-14T09:21:28.519Z,1.00
2023-08-14T09:23:55.644Z,1.15
2023-08-14T09:26:22.504Z,0.88
2023-08-14T09:28:49.327Z,0.80
2023-08-14T09:31:16.203Z,0.93
2023-08-14T09:33:44.154Z,1.05
2023-08-14T09:36:12.830Z,1.00
2023-08-14T09:38:39.869Z,1.10
2023-08-14T09:41:06.674Z,0.80
2023-08-14T09:43:33.852Z,0.80
2023-08-14T09:46:01.707Z,0.90
2023-08-14T09:48:45.318Z,0.80
2023-08-14T09:51:16.020Z,0.70
2023-08-14T09:53:56.547Z,1.05
2023-08-14T09:56:23.966Z,0.85
2023-08-14T09:58:50.942Z,0.68
2023-08-14T10:01:18.851Z,0.80
2023-08-14T10:03:47.697Z,0.70
2023-08-14T10:06:15.113Z,0.88
2023-08-14T10:08:43.919Z,0.80
2023-08-14T10:11:19.486Z,0.90
2023-08-14T10:13:47.594Z,0.82
2023-08-14T10:16:17.257Z,0.63
2023-08-14T10:18:44.312Z,1.38
2023-08-14T10:21:13.127Z,0.90
2023-08-14T10:23:40.520Z,1.15
2023-08-14T10:26:08.175Z,0.88
2023-08-14T10:28:34.964Z,0.80
2023-08-14T10:31:01.975Z,0.60
2023-08-14T10:33:28.829Z,1.30
2023-08-14T10:35:56.562Z,1.20
2023-08-14T10:38:26.102Z,0.88
2023-08-14T10:41:05.281Z,0.77
2023-08-14T10:43:32.043Z,1.70
2023-08-14T10:45:58.931Z,0.73
2023-08-14T10:48:25.973Z,0.80
2023-08-14T10:51:00.972Z,1.00
2023-08-14T10:53:28.015Z,1.23
2023-08-14T10:55:54.968Z,0.88
2023-08-14T10:58:34.140Z,1.00
2023-08-14T11:01:01.566Z,0.75
2023-08-14T11:03:28.503Z,1.60
2023-08-14T11:05:55.636Z,1.10
2023-08-14T11:08:22.493Z,1.00
2023-08-14T11:10:50.307Z,1.10
2023-08-14T11:13:17.487Z,0.90
2023-08-14T11:15:44.567Z,1.20
2023-08-14T11:18:11.586Z,0.90
2023-08-14T11:20:39.179Z,1.02
2023-08-14T11:23:09.490Z,1.05
2023-08-14T11:25:36.974Z,0.98
2023-08-14T11:28:04.220Z,0.90
2023-08-14T11:30:35.533Z,1.67
2023-08-14T11:33:05.880Z,1.00
2023-08-14T11:35:32.999Z,0.82
2023-08-14T11:37:59.921Z,1.10
2023-08-14T11:40:27.214Z,0.63
2023-08-14T11:42:58.885Z,1.10
2023-08-14T11:45:36.074Z,0.90
2023-08-14T11:48:02.974Z,0.85
2023-08-14T11:50:31.179Z,1.15
2023-08-14T11:53:05.792Z,0.95
2023-08-14T11:55:33.038Z,0.85
2023-08-14T11:58:00.797Z,0.80
2023-08-14T12:00:33.678Z,1.10
2023-08-14T12:05:28.094Z,1.33
2023-08-14T12:07:54.888Z,0.65
2023-08-14T12:10:21.814Z,0.90
2023-08-14T12:12:55.568Z,1.00
2023-08-14T12:15:26.465Z,0.70
2023-08-14T12:17:54.207Z,1.13
2023-08-14T12:20:23.527Z,1.33
2023-08-14T12:22:58.912Z,1.02
2023-08-14T12:25:29.000Z,0.90
2023-08-14T12:27:55.853Z,0.60
2023-08-14T12:30:22.710Z,0.73
2023-08-14T12:32:49.817Z,0.95
2023-08-14T12:35:26.326Z,0.80
2023-08-14T12:37:53.096Z,0.88
2023-08-14T12:40:20.081Z,1.17
2023-08-14T12:42:48.734Z,0.82
2023-08-14T12:45:15.659Z,0.70
2023-08-14T12:47:42.448Z,0.70
2023-08-14T12:50:09.283Z,0.70
2023-08-14T12:52:36.485Z,0.93
2023-08-14T12:55:06.145Z,0.80
2023-08-14T12:57:33.884Z,0.70
2023-08-14T13:00:00.887Z,1.10
2023-08-14T13:04:57.890Z,0.80
2023-08-14T13:07:27.862Z,1.15
2023-08-14T13:09:54.670Z,1.00
2023-08-14T13:12:21.447Z,0.60
2023-08-14T13:14:48.354Z,0.70
2023-08-14T13:17:15.138Z,0.65
2023-08-14T13:19:41.884Z,0.68
2023-08-14T13:22:08.905Z,0.70
2023-08-14T13:24:35.853Z,1.00
2023-08-14T13:29:35.426Z,0.95
2023-08-14T13:32:02.318Z,0.82
2023-08-14T13:34:30.629Z,1.10
2023-08-14T13:36:57.483Z,0.90
2023-08-14T13:39:24.394Z,0.85
2023-08-14T13:41:51.196Z,0.85
2023-08-14T13:44:17.968Z,1.02
2023-08-14T13:46:44.785Z,1.10
2023-08-14T13:49:11.672Z,1.10
2023-08-14T13:51:38.839Z,0.85
2023-08-14T13:54:06.108Z,1.33
2023-08-14T13:56:32.922Z,1.00
2023-08-14T13:58:59.890Z,0.88
2023-08-14T14:01:27.699Z,1.15
2023-08-14T14:03:54.911Z,0.85
2023-08-14T14:06:21.876Z,1.00
2023-08-14T14:08:48.614Z,1.05
2023-08-14T14:11:15.565Z,1.10
2023-08-14T14:13:42.402Z,1.00
2023-08-14T14:16:09.148Z,1.00
2023-08-14T14:18:36.026Z,0.90
2023-08-14T14:21:02.803Z,1.20
2023-08-14T14:23:29.622Z,1.00
2023-08-14T14:25:56.413Z,0.82
2023-08-14T14:28:23.572Z,1.35
2023-08-14T14:30:50.428Z,0.90
2023-08-14T14:33:17.205Z,1.17
2023-08-14T14:35:45.579Z,0.93
2023-08-14T14:38:18.033Z,0.82
2023-08-14T14:40:44.804Z,1.17
2023-08-14T14:43:11.581Z,1.38
2023-08-14T14:45:38.344Z,0.88
2023-08-14T14:48:05.614Z,0.98
2023-08-14T14:50:32.597Z,1.48
2023-08-14T14:52:59.618Z,1.30
2023-08-14T14:55:27.991Z,1.27
2023-08-14T14:57:54.886Z,1.45
2023-08-14T15:00:21.962Z,1.30
2023-08-14T15:02:48.791Z,1.10
2023-08-14T15:05:27.665Z,1.00
2023-08-14T15:07:55.924Z,1.00
2023-08-14T15:10:22.708Z,0.90
2023-08-14T15:12:49.711Z,1.00
2023-08-14T15:15:16.696Z,1.40
2023-08-14T15:17:44.962Z,1.08
2023-08-14T15:20:13.554Z,1.58
2023-08-14T15:22:40.679Z,1.35
2023-08-14T15:25:09.295Z,1.20
2023-08-14T15:27:36.334Z,1.27
2023-08-14T15:30:03.777Z,1.50
2023-08-14T15:32:30.795Z,1.60
2023-08-14T15:34:57.756Z,1.20
2023-08-14T15:37:24.646Z,1.40
2023-08-14T15:39:52.038Z,1.67
2023-08-14T15:42:18.944Z,1.20
2023-08-14T15:44:45.736Z,0.88
2023-08-14T15:47:12.510Z,0.85
2023-08-14T15:49:39.570Z,0.90
2023-08-14T15:52:06.754Z,1.00
2023-08-14T15:54:47.389Z,0.80
2023-08-14T15:57:20.351Z,1.17
2023-08-14T15:59:47.458Z,0.95
2023-08-14T16:02:14.487Z,1.45
2023-08-14T16:04:41.958Z,0.75
2023-08-14T16:07:08.724Z,0.70
2023-08-14T16:09:35.472Z,0.90
2023-08-14T16:12:02.255Z,0.90
2023-08-14T16:14:29.056Z,1.40
2023-08-14T16:16:55.936Z,1.25
2023-08-14T16:19:22.868Z,0.93
2023-08-14T16:21:49.680Z,1.08
2023-08-14T16:24:16.426Z,1.10
2023-08-14T16:26:44.152Z,1.17
2023-08-14T16:29:11.114Z,0.85
2023-08-14T16:31:37.898Z,1.00
2023-08-14T16:34:04.680Z,1.10
2023-08-14T16:36:31.517Z,0.93
2023-08-14T16:38:58.354Z,1.42
2023-08-14T16:41:25.160Z,0.90
2023-08-14T16:43:51.932Z,1.10
2023-08-14T16:46:18.718Z,0.93
2023-08-14T16:48:47.128Z,1.00
2023-08-14T16:51:13.905Z,1.15
2023-08-14T16:53:40.746Z,0.88
2023-08-14T16:56:07.484Z,0.70
2023-08-14T16:58:34.187Z,1.10
2023-08-14T17:01:01.075Z,0.80
2023-08-14T17:03:28.111Z,1.10
2023-08-14T17:06:05.377Z,0.95
2023-08-14T17:08:33.753Z,1.33
2023-08-14T17:11:02.024Z,0.90
2023-08-14T17:13:29.147Z,0.80
2023-08-14T17:15:56.031Z,1.20
2023-08-14T17:18:23.258Z,0.90
2023-08-14T17:20:50.190Z,1.25
2023-08-14T17:23:19.593Z,1.23
2023-08-14T17:25:56.338Z,0.80
2023-08-14T17:28:26.973Z,1.00
2023-08-14T17:30:57.775Z,0.60
2023-08-14T17:33:24.884Z,0.93
2023-08-14T17:35:52.014Z,0.68
2023-08-14T17:38:19.224Z,0.95
2023-08-14T17:40:49.329Z,0.98
2023-08-14T17:43:17.909Z,0.75
2023-08-14T17:45:45.521Z,0.70
2023-08-14T17:48:12.546Z,0.63
2023-08-14T17:50:39.504Z,0.88
2023-08-14T17:53:06.396Z,0.80
2023-08-14T17:55:33.168Z,0.90
2023-08-14T17:57:59.960Z,1.05
2023-08-14T18:00:26.773Z,0.90
2023-08-14T18:02:53.591Z,0.85
2023-08-14T18:05:20.424Z,1.65
2023-08-14T18:07:47.363Z,0.82
2023-08-14T18:10:14.285Z,0.77
2023-08-14T18:12:41.130Z,0.90
2023-08-14T18:15:08.860Z,0.93
2023-08-14T18:17:35.760Z,0.98
2023-08-14T18:20:02.522Z,1.05
2023-08-14T18:22:30.010Z,0.75
2023-08-14T18:24:56.824Z,0.93
2023-08-14T18:27:23.754Z,0.90
2023-08-14T18:29:50.478Z,0.77
2023-08-14T18:32:17.412Z,1.17
2023-08-14T18:34:44.258Z,1.35
2023-08-14T18:37:11.254Z,1.17
2023-08-14T18:39:38.253Z,0.80
2023-08-14T18:42:06.828Z,1.35
2023-08-14T18:44:37.415Z,0.90
2023-08-14T18:47:04.269Z,1.00
2023-08-14T18:49:32.046Z,0.93
2023-08-14T18:51:58.978Z,0.70
2023-08-14T18:54:25.981Z,1.17
2023-08-14T18:56:52.851Z,0.85
2023-08-14T18:59:23.573Z,1.10
2023-08-14T19:01:51.398Z,0.98
2023-08-14T19:04:25.610Z,1.02
2023-08-14T19:06:56.275Z,0.95
2023-08-14T19:09:23.052Z,0.80
2023-08-14T19:11:49.806Z,0.90
2023-08-14T19:14:16.627Z,0.98
2023-08-14T19:16:43.448Z,0.85
2023-08-14T19:19:10.310Z,0.90
2023-08-14T19:21:37.180Z,1.45
2023-08-14T19:24:04.527Z,0.60
2023-08-14T19:26:31.257Z,0.70
2023-08-14T19:28:58.087Z,0.70
2023-08-14T19:31:26.647Z,0.95
2023-08-14T19:33:56.260Z,0.60
2023-08-14T19:36:23.173Z,0.60
2023-08-14T19:38:50.048Z,0.60
2023-08-14T19:41:16.967Z,0.70
2023-08-14T19:43:43.747Z,0.50
2023-08-14T19:46:11.725Z,0.70
2023-08-14T19:48:38.699Z,0.70
2023-08-14T19:51:05.550Z,0.68
2023-08-14T19:53:32.471Z,0.40
2023-08-14T19:56:00.499Z,0.70
2023-08-14T19:58:27.301Z,0.60
2023-08-14T20:01:01.069Z,0.60
2023-08-14T20:03:28.379Z,0.60
2023-08-14T20:05:55.203Z,0.60
2023-08-14T20:08:22.569Z,0.38
2023-08-14T20:10:49.415Z,0.50
2023-08-14T20:13:16.318Z,0.40
2023-08-14T20:15:47.173Z,0.40
2023-08-14T20:18:14.580Z,0.40
2023-08-14T20:20:41.899Z,0.30
2023-08-14T20:23:08.947Z,0.40
2023-08-14T20:25:36.533Z,0.30
2023-08-14T20:28:04.108Z,0.35
2023-08-14T20:30:31.126Z,0.40
2023-08-14T20:32:58.189Z,0.50
2023-08-14T20:35:25.186Z,0.40
2023-08-14T20:37:52.249Z,0.40
2023-08-14T20:40:19.208Z,0.50
2023-08-14T20:42:46.033Z,0.40
2023-08-14T20:45:13.758Z,0.50
2023-08-14T20:47:40.709Z,0.43
2023-08-14T20:50:08.079Z,0.65
2023-08-14T20:52:35.063Z,0.50
2023-08-14T20:55:02.083Z,0.60
2023-08-14T20:57:28.914Z,0.50
2023-08-14T20:59:55.850Z,0.90
2023-08-14T21:02:22.847Z,0.68
2023-08-14T21:04:49.720Z,0.50
2023-08-14T21:07:16.608Z,0.30
2023-08-14T21:09:43.448Z,1.40
2023-08-14T21:12:10.301Z,0.45
2023-08-14T21:14:37.150Z,0.50
2023-08-14T21:17:03.904Z,1.23
2023-08-14T21:19:30.747Z,0.43
2023-08-14T21:21:57.700Z,0.50
2023-08-14T21:24:24.621Z,0.50
2023-08-14T21:26:51.453Z,0.40
2023-08-14T21:29:18.301Z,1.00
2023-08-14T21:31:45.170Z,0.60
2023-08-14T21:34:16.942Z,0.50
2023-08-14T21:36:43.982Z,0.50
2023-08-14T21:39:11.237Z,0.60
2023-08-14T21:41:38.233Z,0.50
2023-08-14T21:44:05.513Z,0.50
2023-08-14T21:46:35.023Z,0.60
2023-08-14T21:49:04.214Z,0.50
2023-08-14T21:51:31.089Z,1.35
2023-08-14T21:53:57.963Z,0.70
2023-08-14T21:56:24.830Z,0.50
2023-08-14T21:58:51.711Z,0.65
2023-08-14T22:01:18.764Z,0.60
2023-08-14T22:03:45.654Z,0.68
2023-08-14T22:06:12.605Z,0.60
2023-08-14T22:08:39.446Z,0.70
2023-08-14T22:11:06.380Z,0.65
2023-08-14T22:13:33.207Z,0.70
2023-08-14T22:16:00.031Z,0.60
2023-08-14T22:18:26.960Z,0.77
2023-08-14T22:20:55.138Z,0.60
2023-08-14T22:23:23.145Z,1.50
2023-08-14T22:25:50.060Z,0.60
2023-08-14T22:28:16.811Z,0.50
2023-08-14T22:30:44.321Z,0.70
2023-08-14T22:33:11.665Z,0.52
2023-08-14T22:35:38.744Z,0.50
2023-08-14T22:38:05.803Z,1.75
2023-08-14T22:40:32.776Z,1.52
2023-08-14T22:42:59.659Z,0.70
2023-08-14T22:45:26.479Z,0.50
2023-08-14T22:47:53.470Z,0.70
2023-08-14T22:50:20.504Z,0.80
2023-08-14T22:52:47.389Z,0.50
2023-08-14T22:55:24.424Z,0.60
2023-08-14T22:58:11.998Z,0.80
2023-08-14T23:00:38.953Z,0.68
2023-08-14T23:03:16.999Z,0.57
2023-08-14T23:05:43.760Z,0.70
2023-08-14T23:08:10.589Z,0.50
2023-08-14T23:10:37.497Z,0.70
2023-08-14T23:13:04.570Z,1.00
2023-08-14T23:15:31.393Z,0.60
2023-08-14T23:17:58.519Z,0.63
2023-08-14T23:20:25.629Z,0.60
2023-08-14T23:22:52.504Z,0.70
2023-08-14T23:25:19.434Z,0.60
2023-08-14T23:27:47.118Z,1.52
2023-08-14T23:30:13.913Z,0.70
2023-08-14T23:32:40.883Z,0.80
2023-08-14T23:35:08.949Z,1.13
2023-08-14T23:37:36.273Z,0.77
2023-08-14T23:40:04.242Z,1.10
2023-08-14T23:42:31.091Z,1.55
2023-08-14T23:44:58.166Z,0.77
2023-08-14T23:47:25.129Z,0.73
2023-08-14T23:49:51.928Z,0.70
2023-08-14T23:52:19.092Z,0.70
2023-08-14T23:54:45.963Z,0.75
2023-08-14T23:57:15.143Z,1.02
2023-08-14T23:59:45.092Z,0.88
